Villahermosa Airport, Mexico

10:58 AM CDT on July 03, 2015 (GMT -0500)
C P A Carlos Rovirosa International | | Change Station
CLOSE
Current Station
Airport
Location: Villahermosa Airport,
Elevation: 43 ft
Nearby Weather Stations

Elev 43 ft 18.00 °N, 92.82 °W | Updated 13 minutes ago

Mostly Cloudy
Mostly Cloudy
86 °F
Feels Like 93 °F
N
10
Wind Variable Wind from ESE

Today
High -- | Low -- °F
--% Chance of Precip.
Yesterday
High -- | Low -- °F
Precip. -- in
6:39 AM 7:50 PM
Full, 97% visible
Pressure 29.91 in
Visibility 7.0 miles
Clouds Mostly Cloudy 1500 ft
Mostly Cloudy 20000 ft
Heat Index 93 °F
Dew Point 73 °F
Humidity 66%
Rainfall 0.00 in
Snow Depth Not available.
UV 5 out of 12
Pollen Not available.
Air Quality Not available.
Flu Activity Not available.
METAR MMVA 031545Z 11009KT 7SM BKN015 BKN200 30/23 A2991 RMK 8/501

More Conditions Fewer Conditions

Pressure 29.91 in
Visibility 7.0 miles
Clouds Mostly Cloudy 1500 ft
Mostly Cloudy 20000 ft
Heat Index 93 °F
Dew Point 73 °F
Humidity 66%
Rainfall 0.00 in
Snow Depth Not available.
UV 5 out of 12
Pollen Not available.
Air Quality Not available.
Flu Activity Not available.
METAR MMVA 031545Z 11009KT 7SM BKN015 BKN200 30/23 A2991 RMK 8/501

More Conditions Fewer Conditions

10-Day Weather Forecast

×

Almanac

Astronomy

Jul. 03, 2015 Rise Set
Actual Time
Civil Twilight
Nautical Twilight
Astronomical Twilight
Moon
Length of Visible Light
Length of Day
Tomorrow will be .
, % of the Moon is Illuminated

Today's Extremes

Country Highs Country Lows

Community

WunderPhotos

Upload Photos

1,834,679 photos uploaded!

WunderBlogs® & News

Nearby

Air Quality

  Air Quality AQ Index Pollutant
Not available.

Snow Depth

Station Depth Elevation

Earthquake Activity

City Distance Mag. Time & Date
Minimum magnitude displayed is 2.5.

Coastal Water Temperatures

Place Temperature

Stations

Nearby Weather Stations

Station Location Temp. Windchill Dew Point Humidity Wind Precip. Elev Updated Type